createdAt,value
2019-04-05T00:00:44.457Z,15.40
2019-04-05T00:01:44.432Z,15.50
2019-04-05T00:02:44.426Z,13.40
2019-04-05T00:03:44.441Z,16.30
2019-04-05T00:04:44.407Z,15.70
2019-04-05T00:05:44.398Z,14.40
2019-04-05T00:06:44.398Z,12.60
2019-04-05T00:07:44.377Z,17.50
2019-04-05T00:08:44.386Z,18.10
2019-04-05T00:09:44.354Z,16.00
2019-04-05T00:10:44.348Z,14.70
2019-04-05T00:11:44.323Z,11.50
2019-04-05T00:12:44.318Z,6.60
2019-04-05T00:13:44.325Z,10.90
2019-04-05T00:14:44.296Z,8.80
2019-04-05T00:15:44.678Z,12.10
2019-04-05T00:16:44.277Z,9.20
2019-04-05T00:17:44.257Z,9.20
2019-04-05T00:18:44.263Z,10.30
2019-04-05T00:19:44.235Z,7.60
2019-04-05T00:20:44.231Z,9.10
2019-04-05T00:21:44.215Z,15.30
2019-04-05T00:22:44.210Z,10.20
2019-04-05T00:23:44.207Z,8.80
2019-04-05T00:24:44.197Z,11.40
2019-04-05T00:25:44.168Z,7.70
2019-04-05T00:26:44.163Z,8.80
2019-04-05T00:27:44.155Z,9.10
2019-04-05T00:28:44.168Z,11.30
2019-04-05T00:29:44.126Z,9.00
2019-04-05T00:30:44.128Z,9.10
2019-04-05T00:31:44.105Z,7.00
2019-04-05T00:32:44.097Z,8.00
2019-04-05T00:33:44.095Z,5.40
2019-04-05T00:34:44.076Z,9.10
2019-04-05T00:35:44.073Z,9.30
2019-04-05T00:36:44.052Z,10.50
2019-04-05T00:37:44.048Z,6.60
2019-04-05T00:38:44.046Z,9.30
2019-04-05T00:39:44.018Z,8.50
2019-04-05T00:40:44.020Z,10.60
2019-04-05T00:41:44.005Z,10.80
2019-04-05T00:42:43.990Z,7.40
2019-04-05T00:43:43.986Z,9.70
2019-04-05T00:44:43.972Z,8.50
2019-04-05T00:45:43.951Z,9.50
2019-04-05T00:46:44.841Z,11.60
2019-04-05T00:47:43.927Z,9.60
2019-04-05T00:48:43.946Z,8.70
2019-04-05T00:49:43.932Z,10.40
2019-04-05T00:50:43.906Z,9.50
2019-04-05T00:51:43.883Z,6.40
2019-04-05T00:52:43.881Z,10.60
2019-04-05T00:53:43.882Z,7.60
2019-04-05T00:54:43.856Z,11.90
2019-04-05T00:55:43.842Z,9.30
2019-04-05T00:56:43.832Z,7.20
2019-04-05T00:57:43.819Z,10.10
2019-04-05T00:58:43.825Z,11.50
2019-04-05T00:59:43.802Z,9.70
2019-04-05T01:00:43.794Z,9.50
2019-04-05T01:01:43.790Z,10.10
2019-04-05T01:02:43.791Z,12.50
2019-04-05T01:03:43.785Z,10.80
2019-04-05T01:04:43.767Z,12.50
2019-04-05T01:05:43.730Z,10.70
2019-04-05T01:06:43.730Z,8.80
2019-04-05T01:07:43.720Z,10.20
2019-04-05T01:08:43.708Z,14.30
2019-04-05T01:09:43.712Z,9.90
2019-04-05T01:10:43.684Z,9.30
2019-04-05T01:11:43.667Z,12.20
2019-04-05T01:12:43.657Z,8.00
2019-04-05T01:13:43.643Z,13.70
2019-04-05T01:14:43.656Z,12.60
2019-04-05T01:15:43.622Z,10.30
2019-04-05T01:16:43.619Z,14.90
2019-04-05T01:17:43.605Z,14.70
2019-04-05T01:18:43.600Z,15.00
2019-04-05T01:19:43.602Z,10.50
2019-04-05T01:20:43.577Z,11.20
2019-04-05T01:21:43.565Z,13.30
2019-04-05T01:22:43.560Z,13.40
2019-04-05T01:23:43.538Z,16.20
2019-04-05T01:24:43.541Z,13.70
2019-04-05T01:25:43.513Z,11.50
2019-04-05T01:26:43.508Z,12.00
2019-04-05T01:27:43.507Z,11.80
2019-04-05T01:28:43.502Z,9.70
2019-04-05T01:29:43.482Z,9.70
2019-04-05T01:30:43.474Z,14.60
2019-04-05T01:31:43.462Z,10.50
2019-04-05T01:32:43.442Z,17.30
2019-04-05T01:33:43.436Z,10.90
2019-04-05T01:34:43.447Z,14.40
2019-04-05T01:35:43.406Z,8.80
2019-04-05T01:36:43.395Z,12.20
2019-04-05T01:37:43.382Z,12.50
2019-04-05T01:38:43.381Z,10.50
2019-04-05T01:39:43.378Z,9.00
2019-04-05T01:40:43.352Z,12.60
2019-04-05T01:41:43.341Z,10.80
2019-04-05T01:42:43.333Z,10.10
2019-04-05T01:43:43.312Z,10.20
2019-04-05T01:44:43.330Z,10.30
2019-04-05T01:45:53.044Z,10.30
2019-04-05T01:46:44.281Z,12.10
2019-04-05T01:47:43.278Z,10.60
2019-04-05T01:48:43.663Z,11.40
2019-04-05T01:49:43.271Z,8.80
2019-04-05T01:50:43.253Z,16.00
2019-04-05T01:51:43.235Z,6.90
2019-04-05T01:52:43.221Z,14.90
2019-04-05T01:53:43.212Z,9.10
2019-04-05T01:54:43.214Z,12.80
2019-04-05T01:55:43.192Z,11.50
2019-04-05T01:56:43.179Z,11.80
2019-04-05T01:57:43.168Z,15.30
2019-04-05T01:58:43.150Z,11.70
2019-04-05T01:59:43.159Z,8.90
2019-04-05T02:00:43.133Z,10.70
2019-04-05T02:01:43.125Z,9.40
2019-04-05T02:02:43.127Z,9.60
2019-04-05T02:03:43.096Z,11.80
2019-04-05T02:04:43.107Z,10.50
2019-04-05T02:05:43.088Z,13.50
2019-04-05T02:06:43.065Z,12.80
2019-04-05T02:07:43.070Z,14.90
2019-04-05T02:08:43.043Z,13.80
2019-04-05T02:09:43.051Z,11.50
2019-04-05T02:10:43.022Z,11.40
2019-04-05T02:11:43.092Z,11.50
2019-04-05T02:12:43.022Z,14.00
2019-04-05T02:13:42.999Z,10.30
2019-04-05T02:14:43.000Z,15.90
2019-04-05T02:15:42.972Z,12.90
2019-04-05T02:16:42.951Z,13.30
2019-04-05T02:17:42.947Z,15.40
2019-04-05T02:18:42.935Z,11.80
2019-04-05T02:19:42.945Z,13.90
2019-04-05T02:20:42.910Z,13.10
2019-04-05T02:21:42.903Z,11.20
2019-04-05T02:22:42.886Z,11.10
2019-04-05T02:23:42.881Z,12.50
2019-04-05T02:24:42.883Z,12.00
2019-04-05T02:25:42.866Z,14.30
2019-04-05T02:26:42.841Z,11.40
2019-04-05T02:27:42.843Z,10.10
2019-04-05T02:28:42.825Z,12.70
2019-04-05T02:29:42.837Z,16.50
2019-04-05T02:30:42.804Z,11.70
2019-04-05T02:31:42.822Z,11.00
2019-04-05T02:32:42.776Z,15.30
2019-04-05T02:33:42.769Z,10.40
2019-04-05T02:34:42.769Z,13.90
2019-04-05T02:35:42.750Z,13.10
2019-04-05T02:36:42.753Z,10.30
2019-04-05T02:37:42.728Z,9.30
2019-04-05T02:38:42.709Z,14.40
2019-04-05T02:39:42.760Z,15.00
2019-04-05T02:40:42.701Z,10.50
2019-04-05T02:41:42.687Z,11.50
2019-04-05T02:42:42.678Z,12.30
2019-04-05T02:43:42.662Z,12.70
2019-04-05T02:44:42.651Z,10.20
2019-04-05T02:45:42.656Z,11.20
2019-04-05T02:46:42.623Z,10.70
2019-04-05T02:47:42.626Z,11.50
2019-04-05T02:48:42.602Z,12.40
2019-04-05T02:49:42.597Z,19.30
2019-04-05T02:50:42.608Z,21.40
2019-04-05T02:51:42.573Z,25.00
2019-04-05T02:52:42.568Z,20.20
2019-04-05T02:53:42.562Z,23.10
2019-04-05T02:54:42.539Z,16.70
2019-04-05T02:55:42.549Z,18.00
2019-04-05T02:56:42.518Z,19.30
2019-04-05T02:57:42.509Z,18.40
2019-04-05T02:58:42.513Z,17.80
2019-04-05T02:59:42.488Z,17.90
2019-04-05T03:00:42.495Z,16.90
2019-04-05T03:01:42.466Z,16.40
2019-04-05T03:02:42.452Z,20.40
2019-04-05T03:03:42.448Z,14.50
2019-04-05T03:04:42.435Z,15.80
2019-04-05T03:05:43.517Z,17.00
2019-04-05T03:06:42.406Z,21.20
2019-04-05T03:07:42.401Z,22.90
2019-04-05T03:08:42.381Z,21.80
2019-04-05T03:09:42.381Z,21.50
2019-04-05T03:10:42.383Z,24.00
2019-04-05T03:11:42.355Z,22.70
2019-04-05T03:12:42.341Z,20.60
2019-04-05T03:13:42.343Z,20.60
2019-04-05T03:14:42.318Z,26.30
2019-04-05T03:15:42.327Z,21.80
2019-04-05T03:16:42.307Z,17.90
2019-04-05T03:17:42.297Z,20.00
2019-04-05T03:18:42.287Z,18.40
2019-04-05T03:19:42.267Z,20.60
2019-04-05T03:20:42.265Z,19.80
2019-04-05T03:21:42.245Z,29.30
2019-04-05T03:22:42.239Z,24.30
2019-04-05T03:23:42.225Z,25.80
2019-04-05T03:24:42.210Z,16.10
2019-04-05T03:25:42.221Z,20.70
2019-04-05T03:26:42.189Z,19.00
2019-04-05T03:27:42.192Z,19.30
2019-04-05T03:28:42.180Z,15.10
2019-04-05T03:29:42.160Z,13.10
2019-04-05T03:30:42.163Z,23.00
2019-04-05T03:31:42.141Z,19.20
2019-04-05T03:32:42.121Z,19.90
2019-04-05T03:33:42.125Z,21.00
2019-04-05T03:34:42.257Z,17.00
2019-04-05T03:35:42.114Z,22.10
2019-04-05T03:36:42.074Z,16.40
2019-04-05T03:37:42.072Z,24.60
2019-04-05T03:38:42.064Z,15.50
2019-04-05T03:39:42.056Z,13.20
2019-04-05T03:40:42.067Z,18.90
2019-04-05T03:41:42.036Z,21.90
2019-04-05T03:42:42.024Z,23.30
2019-04-05T03:43:42.015Z,15.40
2019-04-05T03:44:41.990Z,19.50
2019-04-05T03:45:42.010Z,19.50
2019-04-05T03:46:55.418Z,21.30
2019-04-05T03:47:42.962Z,16.90
2019-04-05T03:48:41.952Z,25.60
2019-04-05T03:49:41.942Z,13.10
2019-04-05T03:50:45.042Z,18.10
2019-04-05T03:51:41.917Z,15.70
2019-04-05T03:52:41.908Z,14.30
2019-04-05T03:53:41.894Z,12.20
2019-04-05T03:54:41.889Z,12.30
2019-04-05T03:55:41.889Z,11.30
2019-04-05T03:56:41.871Z,5.80
2019-04-05T03:57:41.857Z,10.40
2019-04-05T03:58:41.857Z,12.60
2019-04-05T03:59:41.834Z,7.20
2019-04-05T04:00:41.844Z,6.70
2019-04-05T04:01:41.804Z,14.10
2019-04-05T04:02:41.805Z,5.90
2019-04-05T04:03:41.819Z,8.60
2019-04-05T04:04:41.788Z,14.10
2019-04-05T04:05:41.775Z,10.30
2019-04-05T04:06:41.749Z,8.30
2019-04-05T04:07:41.739Z,10.40
2019-04-05T04:08:41.731Z,7.80
2019-04-05T04:09:41.724Z,11.20
2019-04-05T04:10:41.708Z,10.00
2019-04-05T04:11:41.718Z,19.00
2019-04-05T04:12:41.696Z,7.40
2019-04-05T04:13:41.681Z,12.00
2019-04-05T04:14:41.682Z,8.60
2019-04-05T04:15:41.649Z,8.10
2019-04-05T04:16:41.654Z,11.70
2019-04-05T04:17:41.639Z,8.60
2019-04-05T04:18:41.616Z,13.10
2019-04-05T04:19:41.607Z,5.00
2019-04-05T04:20:41.616Z,8.90
2019-04-05T04:21:41.599Z,3.30
2019-04-05T04:22:41.581Z,1.80
2019-04-05T04:23:41.560Z,1.20
2019-04-05T04:24:41.555Z,2.10
2019-04-05T04:25:41.544Z,1.10
2019-04-05T04:26:41.562Z,4.10
2019-04-05T04:27:41.522Z,1.40
2019-04-05T04:28:41.514Z,3.80
2019-04-05T04:29:41.503Z,1.60
2019-04-05T04:30:41.489Z,1.80
2019-04-05T04:31:41.486Z,2.00
2019-04-05T04:32:41.465Z,1.60
2019-04-05T04:33:41.453Z,2.00
2019-04-05T04:34:41.456Z,1.40
2019-04-05T04:35:41.467Z,1.50
2019-04-05T04:36:41.436Z,1.30
2019-04-05T04:37:41.423Z,1.20
2019-04-05T04:38:41.418Z,1.20
2019-04-05T04:39:41.383Z,1.00
2019-04-05T04:40:41.400Z,0.60
2019-04-05T04:41:41.384Z,1.20
2019-04-05T04:42:41.359Z,0.50
2019-04-05T04:43:41.353Z,0.50
2019-04-05T04:44:41.337Z,0.60
2019-04-05T04:45:41.322Z,0.50
2019-04-05T04:46:41.331Z,0.40
2019-04-05T04:47:41.314Z,0.60
2019-04-05T04:48:41.314Z,0.60
2019-04-05T04:49:41.276Z,0.90
2019-04-05T04:50:41.269Z,0.50
2019-04-05T04:51:41.276Z,0.40
2019-04-05T04:52:41.268Z,0.40
2019-04-05T04:53:41.230Z,0.40
2019-04-05T04:54:41.224Z,0.60
2019-04-05T04:55:41.209Z,0.50
2019-04-05T04:56:41.221Z,0.50
2019-04-05T04:57:41.187Z,0.80
2019-04-05T04:58:41.192Z,0.30
2019-04-05T04:59:41.165Z,0.40
2019-04-05T05:00:41.176Z,0.50
2019-04-05T05:01:41.167Z,0.50
2019-04-05T05:02:41.144Z,0.60
2019-04-05T05:03:41.131Z,0.40
2019-04-05T05:04:41.123Z,0.50
2019-04-05T05:05:41.102Z,0.70
2019-04-05T05:06:41.108Z,0.40
2019-04-05T05:07:41.079Z,0.60
2019-04-05T05:08:41.081Z,0.60
2019-04-05T05:09:41.065Z,0.50
2019-04-05T05:10:41.050Z,0.60
2019-04-05T05:11:41.047Z,0.50
2019-04-05T05:12:41.033Z,0.60
2019-04-05T05:13:41.013Z,0.50
2019-04-05T05:14:41.007Z,0.80
2019-04-05T05:15:40.993Z,0.50
2019-04-05T05:16:41.007Z,0.50
2019-04-05T05:17:40.972Z,0.70
2019-04-05T05:18:40.968Z,0.50
2019-04-05T05:19:40.952Z,0.60
2019-04-05T05:20:42.730Z,0.80
2019-04-05T05:21:40.957Z,0.40
2019-04-05T05:22:40.934Z,0.40
2019-04-05T05:23:40.926Z,0.40
2019-04-05T05:24:40.901Z,0.40
2019-04-05T05:25:40.886Z,1.20
2019-04-05T05:26:40.894Z,0.50
2019-04-05T05:27:40.877Z,0.20
2019-04-05T05:28:40.854Z,0.60
2019-04-05T05:29:40.900Z,0.60
2019-04-05T05:30:40.832Z,0.50
2019-04-05T05:31:40.832Z,0.40
2019-04-05T05:32:40.815Z,0.50
2019-04-05T05:33:40.795Z,0.60
2019-04-05T05:34:40.793Z,0.90
2019-04-05T05:35:40.771Z,0.50
2019-04-05T05:36:40.788Z,0.60
2019-04-05T05:37:40.752Z,0.70
2019-04-05T05:38:40.749Z,0.50
2019-04-05T05:39:40.727Z,0.70
2019-04-05T05:40:40.724Z,0.70
2019-04-05T05:41:40.739Z,0.30
2019-04-05T05:42:40.703Z,0.40
2019-04-05T05:43:40.683Z,0.40
2019-04-05T05:44:40.681Z,0.60
2019-04-05T05:45:40.671Z,4.50
2019-04-05T05:46:40.663Z,1.40
2019-04-05T05:47:51.250Z,0.50
2019-04-05T05:48:41.631Z,0.60
2019-04-05T05:49:40.627Z,0.40
2019-04-05T05:50:40.613Z,0.80
2019-04-05T05:51:40.611Z,0.50
2019-04-05T05:52:40.602Z,0.90
2019-04-05T05:53:40.585Z,0.70
2019-04-05T05:54:40.564Z,0.40
2019-04-05T05:55:40.560Z,0.50
2019-04-05T05:56:40.544Z,0.90
2019-04-05T05:57:40.557Z,0.50
2019-04-05T05:58:40.539Z,0.40
2019-04-05T05:59:40.517Z,0.40
2019-04-05T06:00:40.503Z,0.50
2019-04-05T06:01:40.494Z,0.40
2019-04-05T06:02:40.494Z,0.70
2019-04-05T06:03:40.483Z,0.50
2019-04-05T06:04:40.456Z,0.50
2019-04-05T06:05:40.451Z,0.30
2019-04-05T06:06:40.433Z,0.40
2019-04-05T06:07:40.448Z,0.50
2019-04-05T06:08:40.414Z,0.50
2019-04-05T06:09:40.432Z,0.40
2019-04-05T06:10:40.392Z,0.50
2019-04-05T06:11:40.384Z,3.50
2019-04-05T06:12:40.382Z,0.40
2019-04-05T06:13:40.372Z,0.80
2019-04-05T06:14:40.345Z,0.40
2019-04-05T06:15:40.343Z,1.60
2019-04-05T06:16:46.386Z,0.80
2019-04-05T06:17:41.338Z,0.50
2019-04-05T06:18:40.301Z,0.90
2019-04-05T06:19:40.304Z,0.70
2019-04-05T06:20:40.292Z,0.30
2019-04-05T06:21:40.278Z,0.40
2019-04-05T06:22:40.271Z,0.60
2019-04-05T06:23:40.254Z,0.40
2019-04-05T06:24:40.238Z,0.70
2019-04-05T06:25:40.270Z,0.60
2019-04-05T06:26:40.214Z,0.30
2019-04-05T06:27:40.233Z,0.50
2019-04-05T06:28:40.308Z,0.80
2019-04-05T06:29:40.188Z,0.60
2019-04-05T06:30:40.171Z,0.60
2019-04-05T06:31:40.170Z,1.00
2019-04-05T06:32:40.163Z,0.40
2019-04-05T06:33:40.141Z,0.60
2019-04-05T06:34:40.128Z,0.30
2019-04-05T06:35:40.124Z,0.70
2019-04-05T06:36:40.108Z,0.60
2019-04-05T06:37:40.118Z,1.10
2019-04-05T06:38:40.092Z,0.50
2019-04-05T06:39:40.098Z,0.40
2019-04-05T06:40:41.357Z,0.30
2019-04-05T06:41:40.058Z,0.40
2019-04-05T06:42:40.062Z,0.60
2019-04-05T06:43:40.038Z,0.60
2019-04-05T06:44:40.023Z,0.50
2019-04-05T06:45:40.013Z,0.60
2019-04-05T06:46:39.995Z,0.50
2019-04-05T06:47:40.007Z,0.60
2019-04-05T06:48:39.972Z,0.60
2019-04-05T06:49:39.976Z,0.40
2019-04-05T06:50:39.950Z,0.40
2019-04-05T06:51:39.948Z,0.60
2019-04-05T06:52:39.960Z,0.80
2019-04-05T06:53:39.923Z,0.50
2019-04-05T06:54:39.906Z,0.50
2019-04-05T06:55:39.912Z,0.70
2019-04-05T06:56:39.904Z,0.40
2019-04-05T06:57:39.895Z,1.70
2019-04-05T06:58:39.865Z,0.60
2019-04-05T06:59:39.858Z,0.30
2019-04-05T07:00:39.840Z,0.60
2019-04-05T07:01:39.853Z,0.60
2019-04-05T07:02:39.839Z,0.50
2019-04-05T07:03:39.815Z,0.60
2019-04-05T07:04:39.797Z,0.40
2019-04-05T07:05:39.795Z,0.50
2019-04-05T07:06:39.778Z,0.50
2019-04-05T07:07:39.788Z,0.50
2019-04-05T07:08:39.757Z,0.40
2019-04-05T07:09:39.747Z,0.30
2019-04-05T07:10:39.735Z,0.30
2019-04-05T07:11:39.725Z,0.80
2019-04-05T07:12:39.725Z,0.80
2019-04-05T07:13:39.714Z,0.60
2019-04-05T07:14:39.690Z,0.50
2019-04-05T07:15:39.681Z,0.40
2019-04-05T07:16:39.668Z,0.50
2019-04-05T07:17:39.683Z,1.20
2019-04-05T07:18:39.645Z,0.70
2019-04-05T07:19:39.646Z,0.70
2019-04-05T07:20:39.625Z,0.40
2019-04-05T07:21:39.615Z,2.10
2019-04-05T07:22:39.793Z,0.60
2019-04-05T07:23:39.598Z,0.90
2019-04-05T07:24:39.580Z,0.60
2019-04-05T07:25:39.574Z,1.40
2019-04-05T07:26:39.560Z,0.70
2019-04-05T07:27:39.569Z,0.30
2019-04-05T07:28:39.539Z,0.60
2019-04-05T07:29:39.531Z,0.30
2019-04-05T07:30:39.522Z,1.30
2019-04-05T07:31:39.516Z,0.90
2019-04-05T07:32:39.531Z,0.40
2019-04-05T07:33:39.483Z,0.20
2019-04-05T07:34:39.468Z,0.50
2019-04-05T07:35:39.465Z,0.40
2019-04-05T07:36:39.443Z,0.50
2019-04-05T07:37:39.438Z,0.60
2019-04-05T07:38:39.437Z,0.50
2019-04-05T07:39:39.792Z,0.30
2019-04-05T07:40:39.408Z,0.40
2019-04-05T07:41:39.415Z,0.60
2019-04-05T07:42:39.383Z,0.50
2019-04-05T07:43:39.405Z,0.30
2019-04-05T07:44:39.357Z,0.50
2019-04-05T07:45:39.353Z,0.80
2019-04-05T07:46:39.342Z,0.40
2019-04-05T07:47:39.336Z,0.50
2019-04-05T07:48:45.083Z,0.60
2019-04-05T07:49:40.305Z,0.30
2019-04-05T07:50:39.290Z,0.50
2019-04-05T07:51:39.290Z,0.50
2019-04-05T07:52:39.274Z,0.60
2019-04-05T07:53:39.284Z,0.40
2019-04-05T07:54:39.247Z,0.60
2019-04-05T07:55:39.246Z,0.80
2019-04-05T07:56:39.224Z,0.50
2019-04-05T07:57:39.220Z,0.20
2019-04-05T07:58:39.223Z,0.60
2019-04-05T07:59:39.200Z,0.40
2019-04-05T08:00:39.184Z,0.50
2019-04-05T08:01:39.184Z,0.50
2019-04-05T08:02:39.162Z,0.40
2019-04-05T08:03:39.166Z,0.90
2019-04-05T08:04:39.147Z,0.40
2019-04-05T08:05:39.149Z,0.40
2019-04-05T08:06:39.114Z,0.50
2019-04-05T08:07:39.109Z,0.40
2019-04-05T08:08:39.108Z,0.50
2019-04-05T08:09:39.086Z,0.50
2019-04-05T08:10:39.085Z,0.30
2019-04-05T08:11:39.066Z,2.00
2019-04-05T08:12:39.054Z,0.40
2019-04-05T08:13:39.063Z,0.60
2019-04-05T08:14:39.045Z,0.50
2019-04-05T08:15:39.033Z,0.40
2019-04-05T08:16:39.012Z,0.70
2019-04-05T08:17:38.997Z,0.60
2019-04-05T08:18:38.996Z,0.60
2019-04-05T08:19:38.979Z,0.40
2019-04-05T08:20:38.976Z,0.50
2019-04-05T08:21:39.040Z,1.00
2019-04-05T08:22:38.939Z,0.50
2019-04-05T08:23:38.946Z,1.80
2019-04-05T08:24:38.921Z,0.60
2019-04-05T08:25:41.228Z,0.40
2019-04-05T08:26:38.896Z,1.50
2019-04-05T08:27:38.892Z,0.40
2019-04-05T08:28:38.899Z,0.40
2019-04-05T08:29:38.866Z,0.60
2019-04-05T08:30:38.851Z,0.30
2019-04-05T08:31:38.847Z,0.50
2019-04-05T08:32:38.832Z,0.30
2019-04-05T08:33:38.842Z,0.40
2019-04-05T08:34:38.807Z,0.30
2019-04-05T08:35:38.807Z,0.40
2019-04-05T08:36:39.183Z,0.50
2019-04-05T08:37:38.783Z,0.30
2019-04-05T08:38:40.000Z,1.10
2019-04-05T08:39:38.770Z,0.40
2019-04-05T08:40:38.752Z,0.50
2019-04-05T08:41:38.735Z,0.40
2019-04-05T08:42:38.728Z,1.00
2019-04-05T08:43:38.733Z,0.40
2019-04-05T08:44:38.699Z,0.40
2019-04-05T08:45:38.692Z,0.40
2019-04-05T08:46:38.673Z,0.40
2019-04-05T08:47:38.679Z,0.60
2019-04-05T08:48:38.685Z,0.60
2019-04-05T08:49:38.654Z,0.40
2019-04-05T08:50:38.632Z,0.30
2019-04-05T08:51:38.627Z,0.80
2019-04-05T08:52:38.614Z,0.50
2019-04-05T08:53:38.608Z,0.50
2019-04-05T08:54:38.607Z,0.50
2019-04-05T08:55:38.579Z,0.40
2019-04-05T08:56:38.571Z,0.30
2019-04-05T08:57:38.558Z,0.40
2019-04-05T08:58:38.545Z,0.50
2019-04-05T08:59:38.560Z,0.40
2019-04-05T09:00:38.521Z,3.90
2019-04-05T09:01:38.516Z,0.50
2019-04-05T09:02:38.528Z,0.50
2019-04-05T09:03:38.493Z,0.30
2019-04-05T09:04:38.491Z,0.30
2019-04-05T09:05:38.477Z,0.40
2019-04-05T09:06:38.459Z,0.70
2019-04-05T09:07:38.454Z,0.30
2019-04-05T09:08:38.434Z,0.40
2019-04-05T09:09:38.440Z,0.40
2019-04-05T09:10:38.411Z,0.40
2019-04-05T09:11:38.403Z,1.70
2019-04-05T09:12:38.389Z,0.40
2019-04-05T09:13:38.401Z,0.60
2019-04-05T09:14:38.384Z,0.50
2019-04-05T09:15:38.362Z,0.20
2019-04-05T09:16:38.344Z,0.30
2019-04-05T09:17:38.342Z,0.40
2019-04-05T09:18:38.328Z,0.40
2019-04-05T09:19:38.329Z,0.30
2019-04-05T09:20:38.308Z,0.30
2019-04-05T09:21:40.483Z,0.30
2019-04-05T09:22:38.275Z,0.60
2019-04-05T09:23:38.269Z,1.30
2019-04-05T09:24:38.268Z,0.40
2019-04-05T09:25:38.254Z,0.50
2019-04-05T09:26:38.234Z,0.60
2019-04-05T09:27:38.624Z,0.50
2019-04-05T09:28:38.207Z,0.50
2019-04-05T09:29:38.228Z,0.20
2019-04-05T09:30:38.202Z,0.60
2019-04-05T09:31:38.182Z,0.60
2019-04-05T09:32:38.163Z,0.60
2019-04-05T09:33:38.164Z,1.30
2019-04-05T09:34:38.161Z,0.30
2019-04-05T09:35:38.144Z,0.60
2019-04-05T09:36:38.129Z,0.30
2019-04-05T09:37:38.116Z,0.40
2019-04-05T09:38:38.102Z,0.30
2019-04-05T09:39:38.109Z,0.60
2019-04-05T09:40:38.083Z,0.50
2019-04-05T09:41:38.075Z,0.50
2019-04-05T09:42:38.062Z,0.70
2019-04-05T09:43:38.045Z,0.30
2019-04-05T09:44:38.048Z,0.40
2019-04-05T09:45:38.033Z,0.50
2019-04-05T09:46:46.493Z,0.50
2019-04-05T09:47:38.994Z,0.70
2019-04-05T09:48:37.996Z,0.30
2019-04-05T09:49:37.996Z,0.20
2019-04-05T09:50:37.971Z,0.40
2019-04-05T09:51:37.961Z,0.60
2019-04-05T09:52:40.056Z,0.40
2019-04-05T09:53:37.939Z,0.40
2019-04-05T09:54:37.941Z,0.40
2019-04-05T09:55:37.910Z,0.50
2019-04-05T09:56:37.910Z,1.30
2019-04-05T09:57:37.895Z,0.30
2019-04-05T09:58:37.881Z,0.50
2019-04-05T09:59:37.884Z,0.40
2019-04-05T10:00:37.856Z,0.30
2019-04-05T10:01:37.843Z,1.10
2019-04-05T10:02:37.835Z,0.40
2019-04-05T10:03:37.821Z,0.40
2019-04-05T10:04:37.842Z,0.40
2019-04-05T10:05:37.799Z,0.30
2019-04-05T10:06:37.791Z,0.80
2019-04-05T10:07:44.209Z,0.40
2019-04-05T10:08:38.763Z,0.40
2019-04-05T10:09:37.786Z,0.40
2019-04-05T10:10:37.744Z,0.30
2019-04-05T10:11:37.736Z,0.30
2019-04-05T10:12:37.728Z,0.50
2019-04-05T10:13:37.715Z,0.30
2019-04-05T10:14:37.718Z,0.80
2019-04-05T10:15:37.715Z,0.30
2019-04-05T10:16:37.699Z,0.70
2019-04-05T10:17:37.671Z,0.40
2019-04-05T10:18:37.656Z,0.40
2019-04-05T10:19:49.156Z,0.40
2019-04-05T10:20:39.077Z,0.40
2019-04-05T10:21:37.629Z,0.40
2019-04-05T10:22:37.613Z,0.20
2019-04-05T10:23:37.602Z,0.90
2019-04-05T10:24:37.585Z,0.40
2019-04-05T10:25:37.601Z,0.40
2019-04-05T10:26:37.567Z,0.30
2019-04-05T10:27:37.557Z,0.90
2019-04-05T10:28:37.541Z,0.30
2019-04-05T10:29:37.536Z,0.30
2019-04-05T10:30:37.533Z,0.20
2019-04-05T10:31:37.513Z,2.30
2019-04-05T10:32:37.505Z,0.30
2019-04-05T10:33:37.501Z,0.80
2019-04-05T10:34:37.473Z,0.40
2019-04-05T10:35:37.483Z,0.20
2019-04-05T10:36:37.455Z,0.30
2019-04-05T10:37:37.491Z,0.40
2019-04-05T10:38:37.437Z,0.40
2019-04-05T10:39:37.436Z,0.50
2019-04-05T10:40:37.423Z,0.50
2019-04-05T10:41:37.408Z,0.40
2019-04-05T10:42:37.401Z,0.30
2019-04-05T10:43:37.380Z,0.60
2019-04-05T10:44:37.372Z,0.20
2019-04-05T10:45:37.375Z,0.50
2019-04-05T10:46:37.342Z,0.30
2019-04-05T10:47:38.553Z,0.50
2019-04-05T10:48:37.323Z,0.60
2019-04-05T10:49:37.314Z,0.50
2019-04-05T10:50:37.318Z,0.30
2019-04-05T10:51:37.318Z,0.40
2019-04-05T10:52:37.273Z,0.50
2019-04-05T10:53:37.270Z,0.40
2019-04-05T10:54:37.263Z,2.70
2019-04-05T10:55:37.263Z,0.30
2019-04-05T10:56:37.236Z,0.90
2019-04-05T10:57:37.226Z,0.50
2019-04-05T10:58:37.207Z,0.40
2019-04-05T10:59:38.555Z,0.30
2019-04-05T11:00:37.203Z,0.30
2019-04-05T11:01:37.190Z,0.30
2019-04-05T11:02:37.161Z,0.40
2019-04-05T11:03:37.157Z,0.60
2019-04-05T11:04:37.139Z,0.50
2019-04-05T11:05:37.184Z,0.30
2019-04-05T11:06:37.121Z,0.30
2019-04-05T11:07:37.114Z,0.30
2019-04-05T11:08:37.094Z,0.40
2019-04-05T11:09:37.089Z,0.40
2019-04-05T11:10:37.089Z,0.30
2019-04-05T11:11:37.075Z,0.20
2019-04-05T11:12:37.055Z,0.30
2019-04-05T11:13:37.047Z,0.20
2019-04-05T11:14:37.040Z,0.30
2019-04-05T11:15:37.039Z,0.60
2019-04-05T11:16:37.009Z,0.70
2019-04-05T11:17:37.001Z,0.30
2019-04-05T11:18:36.992Z,0.30
2019-04-05T11:19:36.995Z,0.30
2019-04-05T11:20:36.981Z,0.50
2019-04-05T11:21:36.966Z,0.50
2019-04-05T11:22:36.944Z,0.40
2019-04-05T11:23:36.936Z,0.50
2019-04-05T11:24:36.921Z,0.30
2019-04-05T11:25:36.942Z,0.20
2019-04-05T11:26:36.905Z,0.60
2019-04-05T11:27:36.897Z,0.30
2019-04-05T11:28:36.880Z,0.40
2019-04-05T11:29:36.870Z,0.40
2019-04-05T11:30:36.869Z,0.30
2019-04-05T11:31:36.846Z,0.50
2019-04-05T11:32:36.833Z,0.40
2019-04-05T11:33:36.826Z,0.20
2019-04-05T11:34:36.811Z,0.90
2019-04-05T11:35:36.819Z,0.40
2019-04-05T11:36:36.789Z,0.20
2019-04-05T11:37:39.349Z,0.30
2019-04-05T11:38:36.764Z,0.30
2019-04-05T11:39:36.755Z,0.30
2019-04-05T11:40:36.760Z,0.40
2019-04-05T11:41:36.744Z,0.40
2019-04-05T11:42:36.721Z,0.40
2019-04-05T11:43:36.713Z,0.40
2019-04-05T11:44:36.700Z,0.40
2019-04-05T11:45:36.710Z,0.10
2019-04-05T11:46:36.676Z,0.60
2019-04-05T11:47:36.670Z,0.40
2019-04-05T11:48:36.652Z,0.20
2019-04-05T11:49:36.647Z,0.50
2019-04-05T11:50:36.647Z,0.20
2019-04-05T11:51:36.630Z,0.20
2019-04-05T11:52:36.610Z,0.60
2019-04-05T11:53:36.611Z,0.70
2019-04-05T11:54:36.587Z,0.40
2019-04-05T11:55:36.590Z,0.30
2019-04-05T11:56:36.642Z,0.40
2019-04-05T11:57:36.561Z,0.40
2019-04-05T11:58:36.544Z,0.20
2019-04-05T11:59:36.551Z,0.50
2019-04-05T12:00:36.522Z,0.30
2019-04-05T12:01:36.532Z,0.50
2019-04-05T12:02:36.503Z,0.30
2019-04-05T12:03:36.495Z,0.40
2019-04-05T12:04:36.482Z,0.30
2019-04-05T12:05:36.486Z,1.20
2019-04-05T12:06:36.469Z,0.50
2019-04-05T12:07:36.451Z,0.30
2019-04-05T12:08:36.436Z,0.30
2019-04-05T12:09:36.428Z,0.40
2019-04-05T12:10:36.414Z,0.20
2019-04-05T12:11:36.424Z,0.40
2019-04-05T12:12:36.393Z,0.90
2019-04-05T12:13:36.386Z,0.40
2019-04-05T12:14:36.718Z,0.30
2019-04-05T12:15:36.491Z,0.40
2019-04-05T12:16:36.582Z,1.40
2019-04-05T12:17:36.343Z,1.00
2019-04-05T12:18:36.337Z,0.30
2019-04-05T12:19:38.152Z,2.90
2019-04-05T12:20:48.072Z,0.20
2019-04-05T12:21:37.306Z,0.20
2019-04-05T12:22:36.292Z,1.40
2019-04-05T12:23:36.271Z,0.30
2019-04-05T12:24:36.267Z,0.50
2019-04-05T12:25:36.256Z,0.30
2019-04-05T12:26:36.263Z,0.80
2019-04-05T12:27:36.233Z,0.40
2019-04-05T12:28:36.231Z,0.70
2019-04-05T12:29:36.204Z,0.40
2019-04-05T12:30:36.198Z,0.30
2019-04-05T12:31:36.206Z,0.30
2019-04-05T12:32:41.127Z,0.50
2019-04-05T12:33:37.160Z,0.50
2019-04-05T12:34:36.159Z,0.30
2019-04-05T12:35:37.542Z,0.40
2019-04-05T12:36:36.153Z,0.50
2019-04-05T12:37:49.201Z,0.30
2019-04-05T12:38:37.116Z,0.40
2019-04-05T12:39:37.147Z,0.50
2019-04-05T12:40:36.086Z,0.40
2019-04-05T12:41:36.098Z,0.30
2019-04-05T12:42:36.065Z,0.40
2019-04-05T12:43:36.056Z,0.40
2019-04-05T12:44:36.042Z,0.40
2019-04-05T12:45:36.036Z,0.90
2019-04-05T12:46:36.040Z,0.30
2019-04-05T12:47:36.013Z,0.60
2019-04-05T12:48:36.004Z,0.40
2019-04-05T12:49:35.999Z,0.60
2019-04-05T12:50:35.980Z,0.20
2019-04-05T12:51:35.987Z,0.30
2019-04-05T12:52:35.958Z,0.40
2019-04-05T12:53:35.949Z,0.40
2019-04-05T12:54:35.933Z,0.80
2019-04-05T12:55:35.941Z,0.50
2019-04-05T12:56:35.927Z,0.40
2019-04-05T12:57:35.917Z,0.30
2019-04-05T12:58:35.893Z,0.40
2019-04-05T12:59:35.885Z,0.20
2019-04-05T13:00:38.745Z,0.20
2019-04-05T13:01:35.882Z,0.40
2019-04-05T13:02:37.012Z,0.50
2019-04-05T13:03:35.844Z,1.60
2019-04-05T13:04:35.823Z,0.40
2019-04-05T13:05:35.817Z,0.60
2019-04-05T13:06:35.817Z,0.70
2019-04-05T13:07:35.798Z,0.60
2019-04-05T13:08:35.785Z,0.50
2019-04-05T13:09:35.787Z,0.50
2019-04-05T13:10:35.759Z,0.80
2019-04-05T13:11:35.771Z,0.30